sensor_id;sensor_type;location;lat;lon;timestamp;temperature;humidity
3860;DHT22;1945;52.036;8.614;2023-12-20T00:00:30;7.10;99.90
3860;DHT22;1945;52.036;8.614;2023-12-20T00:02:59;7.10;99.90
3860;DHT22;1945;52.036;8.614;2023-12-20T00:05:25;7.00;99.90
3860;DHT22;1945;52.036;8.614;2023-12-20T00:07:52;7.00;99.90
3860;DHT22;1945;52.036;8.614;2023-12-20T00:10:19;7.00;99.90
3860;DHT22;1945;52.036;8.614;2023-12-20T00:12:46;6.90;99.90
3860;DHT22;1945;52.036;8.614;2023-12-20T00:15:13;6.90;99.90
3860;DHT22;1945;52.036;8.614;2023-12-20T00:17:41;6.80;99.90
3860;DHT22;1945;52.036;8.614;2023-12-20T00:20:09;6.70;99.90
3860;DHT22;1945;52.036;8.614;2023-12-20T00:22:35;6.80;99.90
3860;DHT22;1945;52.036;8.614;2023-12-20T00:25:02;6.80;99.90
3860;DHT22;1945;52.036;8.614;2023-12-20T01:51:39;6.60;99.90
3860;DHT22;1945;52.036;8.614;2023-12-20T01:54:09;6.50;99.90
3860;DHT22;1945;52.036;8.614;2023-12-20T01:56:36;6.50;99.90
3860;DHT22;1945;52.036;8.614;2023-12-20T01:59:05;6.50;99.90
3860;DHT22;1945;52.036;8.614;2023-12-20T02:01:35;6.50;99.90
3860;DHT22;1945;52.036;8.614;2023-12-20T02:04:02;6.60;99.90
3860;DHT22;1945;52.036;8.614;2023-12-20T02:11:41;6.40;99.90
3860;DHT22;1945;52.036;8.614;2023-12-20T02:14:08;6.30;99.90
3860;DHT22;1945;52.036;8.614;2023-12-20T02:16:35;6.20;99.90
3860;DHT22;1945;52.036;8.614;2023-12-20T02:19:03;6.30;99.90
3860;DHT22;1945;52.036;8.614;2023-12-20T02:21:33;6.30;99.90
3860;DHT22;1945;52.036;8.614;2023-12-20T02:24:00;6.30;99.90
3860;DHT22;1945;52.036;8.614;2023-12-20T02:26:27;6.30;99.90
3860;DHT22;1945;52.036;8.614;2023-12-20T02:28:54;6.30;99.90
3860;DHT22;1945;52.036;8.614;2023-12-20T02:31:21;6.30;99.90
3860;DHT22;1945;52.036;8.614;2023-12-20T02:33:48;6.30;99.90
3860;DHT22;1945;52.036;8.614;2023-12-20T02:36:15;6.30;99.90
3860;DHT22;1945;52.036;8.614;2023-12-20T02:38:43;6.30;99.90
3860;DHT22;1945;52.036;8.614;2023-12-20T02:41:10;6.30;99.90
3860;DHT22;1945;52.036;8.614;2023-12-20T02:43:37;6.30;99.90
3860;DHT22;1945;52.036;8.614;2023-12-20T02:46:03;6.30;99.90
3860;DHT22;1945;52.036;8.614;2023-12-20T02:48:30;6.30;99.90
3860;DHT22;1945;52.036;8.614;2023-12-20T02:50:57;6.30;99.90
3860;DHT22;1945;52.036;8.614;2023-12-20T02:53:23;6.30;99.90
3860;DHT22;1945;52.036;8.614;2023-12-20T02:55:51;6.30;99.90
3860;DHT22;1945;52.036;8.614;2023-12-20T02:58:18;6.30;99.90
3860;DHT22;1945;52.036;8.614;2023-12-20T03:00:45;6.30;99.90
3860;DHT22;1945;52.036;8.614;2023-12-20T03:03:11;6.30;99.90
3860;DHT22;1945;52.036;8.614;2023-12-20T03:05:38;6.30;99.90
3860;DHT22;1945;52.036;8.614;2023-12-20T03:08:05;6.30;99.90
3860;DHT22;1945;52.036;8.614;2023-12-20T03:10:32;6.30;99.90
3860;DHT22;1945;52.036;8.614;2023-12-20T03:13:00;6.30;99.90
3860;DHT22;1945;52.036;8.614;2023-12-20T03:15:27;6.30;99.90
3860;DHT22;1945;52.036;8.614;2023-12-20T03:17:53;6.30;99.90
3860;DHT22;1945;52.036;8.614;2023-12-20T03:20:21;6.30;99.90
3860;DHT22;1945;52.036;8.614;2023-12-20T03:22:48;6.20;99.90
3860;DHT22;1945;52.036;8.614;2023-12-20T03:25:15;6.30;99.90
3860;DHT22;1945;52.036;8.614;2023-12-20T03:27:41;6.30;99.90
3860;DHT22;1945;52.036;8.614;2023-12-20T03:30:10;6.30;99.90
3860;DHT22;1945;52.036;8.614;2023-12-20T03:32:37;6.30;99.90
3860;DHT22;1945;52.036;8.614;2023-12-20T03:35:05;6.30;99.90
3860;DHT22;1945;52.036;8.614;2023-12-20T03:37:32;6.30;99.90
3860;DHT22;1945;52.036;8.614;2023-12-20T03:39:59;6.30;99.90
3860;DHT22;1945;52.036;8.614;2023-12-20T03:42:25;6.30;99.90
3860;DHT22;1945;52.036;8.614;2023-12-20T03:44:52;6.30;99.90
3860;DHT22;1945;52.036;8.614;2023-12-20T03:47:20;6.30;99.90
3860;DHT22;1945;52.036;8.614;2023-12-20T03:49:47;6.30;99.90
3860;DHT22;1945;52.036;8.614;2023-12-20T03:52:14;6.30;99.90
3860;DHT22;1945;52.036;8.614;2023-12-20T03:54:41;6.30;99.90
3860;DHT22;1945;52.036;8.614;2023-12-20T03:57:08;6.20;99.90
3860;DHT22;1945;52.036;8.614;2023-12-20T03:59:35;6.20;99.90
3860;DHT22;1945;52.036;8.614;2023-12-20T04:02:02;6.20;99.90
3860;DHT22;1945;52.036;8.614;2023-12-20T04:04:30;6.20;99.90
3860;DHT22;1945;52.036;8.614;2023-12-20T04:59:06;6.10;99.90
3860;DHT22;1945;52.036;8.614;2023-12-20T05:01:36;6.30;99.90
3860;DHT22;1945;52.036;8.614;2023-12-20T05:04:03;6.10;99.90
3860;DHT22;1945;52.036;8.614;2023-12-20T05:06:32;6.60;99.90
3860;DHT22;1945;52.036;8.614;2023-12-20T05:09:03;6.40;99.90
3860;DHT22;1945;52.036;8.614;2023-12-20T05:11:36;6.00;99.90
3860;DHT22;1945;52.036;8.614;2023-12-20T05:14:07;6.20;99.90
3860;DHT22;1945;52.036;8.614;2023-12-20T05:19:10;6.20;99.90
3860;DHT22;1945;52.036;8.614;2023-12-20T05:21:37;6.20;99.90
3860;DHT22;1945;52.036;8.614;2023-12-20T05:24:09;6.10;99.90
3860;DHT22;1945;52.036;8.614;2023-12-20T05:26:39;6.20;99.90
3860;DHT22;1945;52.036;8.614;2023-12-20T05:29:11;6.20;99.90
3860;DHT22;1945;52.036;8.614;2023-12-20T05:31:38;6.20;99.90
3860;DHT22;1945;52.036;8.614;2023-12-20T05:34:05;6.20;99.90
3860;DHT22;1945;52.036;8.614;2023-12-20T05:36:32;6.10;99.90
3860;DHT22;1945;52.036;8.614;2023-12-20T05:39:02;6.00;99.90
3860;DHT22;1945;52.036;8.614;2023-12-20T05:41:30;6.20;99.90
3860;DHT22;1945;52.036;8.614;2023-12-20T05:43:57;6.20;99.90
3860;DHT22;1945;52.036;8.614;2023-12-20T05:46:26;6.20;99.90
3860;DHT22;1945;52.036;8.614;2023-12-20T05:48:59;6.20;99.90
3860;DHT22;1945;52.036;8.614;2023-12-20T05:51:26;6.40;99.90
3860;DHT22;1945;52.036;8.614;2023-12-20T05:53:54;6.20;99.90
3860;DHT22;1945;52.036;8.614;2023-12-20T05:56:21;6.20;99.90
3860;DHT22;1945;52.036;8.614;2023-12-20T05:58:49;6.20;99.90
3860;DHT22;1945;52.036;8.614;2023-12-20T06:01:16;6.20;99.90
3860;DHT22;1945;52.036;8.614;2023-12-20T06:03:45;6.20;99.90
3860;DHT22;1945;52.036;8.614;2023-12-20T06:06:12;6.20;99.90
3860;DHT22;1945;52.036;8.614;2023-12-20T06:08:41;6.20;99.90
3860;DHT22;1945;52.036;8.614;2023-12-20T06:11:09;6.20;99.90
3860;DHT22;1945;52.036;8.614;2023-12-20T06:13:36;6.20;99.90
3860;DHT22;1945;52.036;8.614;2023-12-20T06:16:06;6.20;99.90
3860;DHT22;1945;52.036;8.614;2023-12-20T06:18:34;6.20;99.90
3860;DHT22;1945;52.036;8.614;2023-12-20T06:21:05;6.20;99.90
3860;DHT22;1945;52.036;8.614;2023-12-20T06:23:34;6.20;99.90
3860;DHT22;1945;52.036;8.614;2023-12-20T06:26:02;6.20;99.90
3860;DHT22;1945;52.036;8.614;2023-12-20T06:28:29;6.10;99.90
3860;DHT22;1945;52.036;8.614;2023-12-20T06:30:57;6.20;99.90
3860;DHT22;1945;52.036;8.614;2023-12-20T06:33:26;6.20;99.90
3860;DHT22;1945;52.036;8.614;2023-12-20T06:35:55;6.10;99.90
3860;DHT22;1945;52.036;8.614;2023-12-20T06:38:24;6.10;99.90
3860;DHT22;1945;52.036;8.614;2023-12-20T06:40:52;6.20;99.90
3860;DHT22;1945;52.036;8.614;2023-12-20T06:43:19;6.20;99.90
3860;DHT22;1945;52.036;8.614;2023-12-20T06:45:48;6.20;99.90
3860;DHT22;1945;52.036;8.614;2023-12-20T06:48:16;6.10;99.90
3860;DHT22;1945;52.036;8.614;2023-12-20T06:50:44;6.20;99.90
3860;DHT22;1945;52.036;8.614;2023-12-20T06:53:11;6.20;99.90
3860;DHT22;1945;52.036;8.614;2023-12-20T06:55:40;6.10;99.90
3860;DHT22;1945;52.036;8.614;2023-12-20T06:58:08;6.10;99.90
3860;DHT22;1945;52.036;8.614;2023-12-20T07:00:36;6.10;99.90
3860;DHT22;1945;52.036;8.614;2023-12-20T07:03:04;6.10;99.90
3860;DHT22;1945;52.036;8.614;2023-12-20T07:05:34;6.10;99.90
3860;DHT22;1945;52.036;8.614;2023-12-20T07:08:02;6.10;99.90
3860;DHT22;1945;52.036;8.614;2023-12-20T07:10:28;5.70;99.90
3860;DHT22;1945;52.036;8.614;2023-12-20T07:12:56;6.10;99.90
3860;DHT22;1945;52.036;8.614;2023-12-20T07:15:23;6.10;99.90
3860;DHT22;1945;52.036;8.614;2023-12-20T07:17:50;6.10;99.90
3860;DHT22;1945;52.036;8.614;2023-12-20T07:20:18;6.10;99.90
3860;DHT22;1945;52.036;8.614;2023-12-20T07:22:45;6.10;99.90
3860;DHT22;1945;52.036;8.614;2023-12-20T07:25:12;6.20;99.90
3860;DHT22;1945;52.036;8.614;2023-12-20T07:27:38;6.10;99.90
3860;DHT22;1945;52.036;8.614;2023-12-20T07:30:08;6.10;99.90
3860;DHT22;1945;52.036;8.614;2023-12-20T07:32:35;6.10;99.90
3860;DHT22;1945;52.036;8.614;2023-12-20T07:35:03;6.20;99.90
3860;DHT22;1945;52.036;8.614;2023-12-20T07:37:30;6.20;99.90
3860;DHT22;1945;52.036;8.614;2023-12-20T07:39:57;6.20;99.90
3860;DHT22;1945;52.036;8.614;2023-12-20T07:42:24;6.20;99.90
3860;DHT22;1945;52.036;8.614;2023-12-20T07:44:50;6.20;99.90
3860;DHT22;1945;52.036;8.614;2023-12-20T07:47:19;6.20;99.90
3860;DHT22;1945;52.036;8.614;2023-12-20T07:49:47;6.20;99.90
3860;DHT22;1945;52.036;8.614;2023-12-20T07:52:14;6.20;99.90
3860;DHT22;1945;52.036;8.614;2023-12-20T07:54:41;6.20;99.90
3860;DHT22;1945;52.036;8.614;2023-12-20T07:57:08;6.20;99.90
3860;DHT22;1945;52.036;8.614;2023-12-20T07:59:36;6.20;99.90
3860;DHT22;1945;52.036;8.614;2023-12-20T08:02:03;6.30;99.90
3860;DHT22;1945;52.036;8.614;2023-12-20T08:04:31;6.30;99.90
3860;DHT22;1945;52.036;8.614;2023-12-20T08:06:58;6.30;99.90
3860;DHT22;1945;52.036;8.614;2023-12-20T08:09:28;6.30;99.90
3860;DHT22;1945;52.036;8.614;2023-12-20T08:11:55;6.30;99.90
3860;DHT22;1945;52.036;8.614;2023-12-20T08:14:24;6.30;99.90
3860;DHT22;1945;52.036;8.614;2023-12-20T08:16:51;6.40;99.90
3860;DHT22;1945;52.036;8.614;2023-12-20T08:19:24;6.40;99.90
3860;DHT22;1945;52.036;8.614;2023-12-20T08:21:52;6.40;99.90
3860;DHT22;1945;52.036;8.614;2023-12-20T08:24:19;6.40;99.90
3860;DHT22;1945;52.036;8.614;2023-12-20T08:26:46;6.60;99.90
3860;DHT22;1945;52.036;8.614;2023-12-20T08:29:13;6.40;99.90
3860;DHT22;1945;52.036;8.614;2023-12-20T08:31:40;6.50;99.90
3860;DHT22;1945;52.036;8.614;2023-12-20T08:34:06;6.50;99.90
3860;DHT22;1945;52.036;8.614;2023-12-20T08:36:33;6.50;99.90
3860;DHT22;1945;52.036;8.614;2023-12-20T08:39:01;6.50;99.90
3860;DHT22;1945;52.036;8.614;2023-12-20T08:41:29;6.50;99.90
3860;DHT22;1945;52.036;8.614;2023-12-20T08:43:55;6.50;99.90
3860;DHT22;1945;52.036;8.614;2023-12-20T08:46:22;6.40;99.90
3860;DHT22;1945;52.036;8.614;2023-12-20T08:48:58;6.50;99.90
3860;DHT22;1945;52.036;8.614;2023-12-20T08:51:26;6.40;99.90
3860;DHT22;1945;52.036;8.614;2023-12-20T08:53:53;6.50;99.90
3860;DHT22;1945;52.036;8.614;2023-12-20T08:56:24;6.80;99.90
3860;DHT22;1945;52.036;8.614;2023-12-20T08:58:51;6.40;99.90
3860;DHT22;1945;52.036;8.614;2023-12-20T09:01:17;6.40;99.90
3860;DHT22;1945;52.036;8.614;2023-12-20T09:03:44;6.40;99.90
3860;DHT22;1945;52.036;8.614;2023-12-20T09:06:14;6.40;99.90
3860;DHT22;1945;52.036;8.614;2023-12-20T09:08:41;6.40;99.90
3860;DHT22;1945;52.036;8.614;2023-12-20T09:11:08;6.40;99.90
3860;DHT22;1945;52.036;8.614;2023-12-20T09:13:36;6.40;99.90
3860;DHT22;1945;52.036;8.614;2023-12-20T09:16:03;6.40;99.90
3860;DHT22;1945;52.036;8.614;2023-12-20T09:18:30;6.00;99.90
3860;DHT22;1945;52.036;8.614;2023-12-20T09:20:57;6.50;99.90
3860;DHT22;1945;52.036;8.614;2023-12-20T09:23:33;6.50;99.90
3860;DHT22;1945;52.036;8.614;2023-12-20T09:26:04;6.80;99.90
3860;DHT22;1945;52.036;8.614;2023-12-20T09:28:31;6.50;99.90
3860;DHT22;1945;52.036;8.614;2023-12-20T09:31:06;6.50;99.90
3860;DHT22;1945;52.036;8.614;2023-12-20T09:33:33;6.50;99.90
3860;DHT22;1945;52.036;8.614;2023-12-20T09:36:02;6.60;99.90
3860;DHT22;1945;52.036;8.614;2023-12-20T09:38:29;6.60;99.90
3860;DHT22;1945;52.036;8.614;2023-12-20T09:40:56;6.50;99.90
3860;DHT22;1945;52.036;8.614;2023-12-20T09:43:27;6.50;99.90
3860;DHT22;1945;52.036;8.614;2023-12-20T09:45:59;6.50;99.90
3860;DHT22;1945;52.036;8.614;2023-12-20T09:48:31;6.50;99.90
3860;DHT22;1945;52.036;8.614;2023-12-20T09:50:59;6.50;99.90
3860;DHT22;1945;52.036;8.614;2023-12-20T09:53:31;6.50;99.90
3860;DHT22;1945;52.036;8.614;2023-12-20T09:56:02;6.50;99.90
3860;DHT22;1945;52.036;8.614;2023-12-20T09:58:29;6.50;99.90
3860;DHT22;1945;52.036;8.614;2023-12-20T10:00:56;6.50;99.90
3860;DHT22;1945;52.036;8.614;2023-12-20T10:03:27;6.50;99.90
3860;DHT22;1945;52.036;8.614;2023-12-20T10:05:57;6.50;99.90
3860;DHT22;1945;52.036;8.614;2023-12-20T10:08:24;6.50;99.90
3860;DHT22;1945;52.036;8.614;2023-12-20T10:10:51;6.60;99.90
3860;DHT22;1945;52.036;8.614;2023-12-20T10:13:18;6.70;99.90
3860;DHT22;1945;52.036;8.614;2023-12-20T10:15:45;6.70;99.90
3860;DHT22;1945;52.036;8.614;2023-12-20T10:18:12;6.70;99.90
3860;DHT22;1945;52.036;8.614;2023-12-20T10:20:41;6.80;99.90
3860;DHT22;1945;52.036;8.614;2023-12-20T10:23:09;6.90;99.90
3860;DHT22;1945;52.036;8.614;2023-12-20T10:25:36;6.90;99.90
3860;DHT22;1945;52.036;8.614;2023-12-20T10:28:12;6.90;99.90
3860;DHT22;1945;52.036;8.614;2023-12-20T10:30:40;7.00;99.90
3860;DHT22;1945;52.036;8.614;2023-12-20T10:33:07;7.10;99.90
3860;DHT22;1945;52.036;8.614;2023-12-20T10:35:34;7.10;99.90
3860;DHT22;1945;52.036;8.614;2023-12-20T10:38:03;7.10;99.90
3860;DHT22;1945;52.036;8.614;2023-12-20T10:40:34;7.10;99.90
3860;DHT22;1945;52.036;8.614;2023-12-20T10:43:03;6.90;99.90
3860;DHT22;1945;52.036;8.614;2023-12-20T10:45:32;6.80;99.90
3860;DHT22;1945;52.036;8.614;2023-12-20T10:48:04;6.80;99.90
3860;DHT22;1945;52.036;8.614;2023-12-20T10:50:36;6.80;99.90
3860;DHT22;1945;52.036;8.614;2023-12-20T10:53:09;6.80;99.90
3860;DHT22;1945;52.036;8.614;2023-12-20T10:55:43;6.80;99.90
3860;DHT22;1945;52.036;8.614;2023-12-20T10:58:12;6.70;99.90
3860;DHT22;1945;52.036;8.614;2023-12-20T11:00:41;6.80;99.90
3860;DHT22;1945;52.036;8.614;2023-12-20T11:03:11;6.70;99.90
3860;DHT22;1945;52.036;8.614;2023-12-20T11:05:46;6.80;99.90
3860;DHT22;1945;52.036;8.614;2023-12-20T11:08:19;6.80;99.90
3860;DHT22;1945;52.036;8.614;2023-12-20T11:10:58;6.80;99.90
3860;DHT22;1945;52.036;8.614;2023-12-20T11:13:30;6.80;99.90
3860;DHT22;1945;52.036;8.614;2023-12-20T11:15:59;6.80;99.90
3860;DHT22;1945;52.036;8.614;2023-12-20T11:18:30;6.80;99.90
3860;DHT22;1945;52.036;8.614;2023-12-20T11:21:01;6.80;99.90
3860;DHT22;1945;52.036;8.614;2023-12-20T11:23:30;6.80;99.90
3860;DHT22;1945;52.036;8.614;2023-12-20T11:26:02;7.00;99.90
3860;DHT22;1945;52.036;8.614;2023-12-20T11:28:30;6.90;99.90
3860;DHT22;1945;52.036;8.614;2023-12-20T11:30:58;6.90;99.90
3860;DHT22;1945;52.036;8.614;2023-12-20T11:33:30;6.90;99.90
3860;DHT22;1945;52.036;8.614;2023-12-20T11:36:02;6.90;99.90
3860;DHT22;1945;52.036;8.614;2023-12-20T11:38:36;6.80;99.90
3860;DHT22;1945;52.036;8.614;2023-12-20T11:41:07;6.90;99.90
3860;DHT22;1945;52.036;8.614;2023-12-20T11:43:36;6.90;99.90
3860;DHT22;1945;52.036;8.614;2023-12-20T11:48:38;6.90;99.90
3860;DHT22;1945;52.036;8.614;2023-12-20T11:51:09;6.90;99.90
3860;DHT22;1945;52.036;8.614;2023-12-20T11:53:37;6.90;99.90
3860;DHT22;1945;52.036;8.614;2023-12-20T11:56:07;6.90;99.90
3860;DHT22;1945;52.036;8.614;2023-12-20T11:58:35;6.90;99.90
3860;DHT22;1945;52.036;8.614;2023-12-20T12:01:04;6.90;99.90
3860;DHT22;1945;52.036;8.614;2023-12-20T12:03:33;6.90;99.90
3860;DHT22;1945;52.036;8.614;2023-12-20T12:06:00;6.90;99.90
3860;DHT22;1945;52.036;8.614;2023-12-20T12:08:31;6.90;99.90
3860;DHT22;1945;52.036;8.614;2023-12-20T12:10:59;7.00;99.90
3860;DHT22;1945;52.036;8.614;2023-12-20T12:13:28;7.00;99.90
3860;DHT22;1945;52.036;8.614;2023-12-20T12:15:56;7.00;99.90
3860;DHT22;1945;52.036;8.614;2023-12-20T12:18:23;7.10;99.90
3860;DHT22;1945;52.036;8.614;2023-12-20T12:21:00;7.10;99.90
3860;DHT22;1945;52.036;8.614;2023-12-20T12:23:30;7.60;99.90
3860;DHT22;1945;52.036;8.614;2023-12-20T12:26:04;7.10;99.90
3860;DHT22;1945;52.036;8.614;2023-12-20T12:28:34;7.10;99.90
3860;DHT22;1945;52.036;8.614;2023-12-20T12:31:02;7.20;99.90
3860;DHT22;1945;52.036;8.614;2023-12-20T12:33:30;7.20;99.90
3860;DHT22;1945;52.036;8.614;2023-12-20T12:35:57;7.20;99.90
3860;DHT22;1945;52.036;8.614;2023-12-20T12:38:25;7.20;99.90
3860;DHT22;1945;52.036;8.614;2023-12-20T12:40:52;7.30;99.90
3860;DHT22;1945;52.036;8.614;2023-12-20T12:43:19;7.50;99.90
3860;DHT22;1945;52.036;8.614;2023-12-20T12:45:47;7.30;99.90
3860;DHT22;1945;52.036;8.614;2023-12-20T12:48:14;7.30;99.90
3860;DHT22;1945;52.036;8.614;2023-12-20T12:50:41;7.30;99.90
3860;DHT22;1945;52.036;8.614;2023-12-20T12:53:07;7.30;99.90
3860;DHT22;1945;52.036;8.614;2023-12-20T12:55:35;7.30;99.90
3860;DHT22;1945;52.036;8.614;2023-12-20T12:58:01;7.20;99.90
3860;DHT22;1945;52.036;8.614;2023-12-20T13:00:28;7.20;99.90
3860;DHT22;1945;52.036;8.614;2023-12-20T13:02:56;7.10;99.90
3860;DHT22;1945;52.036;8.614;2023-12-20T13:05:23;7.10;99.90
3860;DHT22;1945;52.036;8.614;2023-12-20T13:07:49;7.10;99.90
3860;DHT22;1945;52.036;8.614;2023-12-20T13:10:17;7.10;99.90
3860;DHT22;1945;52.036;8.614;2023-12-20T13:12:43;7.10;99.90
3860;DHT22;1945;52.036;8.614;2023-12-20T13:15:11;7.00;99.90
3860;DHT22;1945;52.036;8.614;2023-12-20T13:17:37;7.00;99.90
3860;DHT22;1945;52.036;8.614;2023-12-20T13:20:07;7.00;99.90
3860;DHT22;1945;52.036;8.614;2023-12-20T13:22:37;6.90;99.90
3860;DHT22;1945;52.036;8.614;2023-12-20T13:25:04;6.60;99.90
3860;DHT22;1945;52.036;8.614;2023-12-20T13:27:34;6.60;99.90
3860;DHT22;1945;52.036;8.614;2023-12-20T13:30:01;6.50;99.90
3860;DHT22;1945;52.036;8.614;2023-12-20T13:32:28;6.50;99.90
3860;DHT22;1945;52.036;8.614;2023-12-20T13:34:56;6.40;99.90
3860;DHT22;1945;52.036;8.614;2023-12-20T13:37:24;6.40;99.90
3860;DHT22;1945;52.036;8.614;2023-12-20T13:39:54;6.40;99.90
3860;DHT22;1945;52.036;8.614;2023-12-20T13:42:20;6.40;99.90
3860;DHT22;1945;52.036;8.614;2023-12-20T13:44:47;6.40;99.90
3860;DHT22;1945;52.036;8.614;2023-12-20T13:47:14;6.40;99.90
3860;DHT22;1945;52.036;8.614;2023-12-20T13:49:41;6.40;99.90
3860;DHT22;1945;52.036;8.614;2023-12-20T13:52:07;6.90;99.90
3860;DHT22;1945;52.036;8.614;2023-12-20T13:54:35;6.40;99.90
3860;DHT22;1945;52.036;8.614;2023-12-20T13:57:03;6.40;99.90
3860;DHT22;1945;52.036;8.614;2023-12-20T13:59:29;6.40;99.90
3860;DHT22;1945;52.036;8.614;2023-12-20T14:01:56;6.40;99.90
3860;DHT22;1945;52.036;8.614;2023-12-20T14:04:23;6.40;99.90
3860;DHT22;1945;52.036;8.614;2023-12-20T14:06:49;6.30;99.90
3860;DHT22;1945;52.036;8.614;2023-12-20T14:09:16;6.30;99.90
3860;DHT22;1945;52.036;8.614;2023-12-20T14:11:44;6.30;99.90
3860;DHT22;1945;52.036;8.614;2023-12-20T14:14:11;6.30;99.90
3860;DHT22;1945;52.036;8.614;2023-12-20T14:16:38;6.30;99.90
3860;DHT22;1945;52.036;8.614;2023-12-20T14:19:04;6.30;99.90
3860;DHT22;1945;52.036;8.614;2023-12-20T14:21:32;6.30;99.90
3860;DHT22;1945;52.036;8.614;2023-12-20T14:23:59;6.30;99.90
3860;DHT22;1945;52.036;8.614;2023-12-20T14:26:26;6.30;99.90
3860;DHT22;1945;52.036;8.614;2023-12-20T14:28:54;6.30;99.90
3860;DHT22;1945;52.036;8.614;2023-12-20T14:31:21;6.30;99.90
3860;DHT22;1945;52.036;8.614;2023-12-20T14:33:49;6.30;99.90
3860;DHT22;1945;52.036;8.614;2023-12-20T14:36:18;6.30;99.90
3860;DHT22;1945;52.036;8.614;2023-12-20T14:38:46;6.20;99.90
3860;DHT22;1945;52.036;8.614;2023-12-20T14:41:15;6.30;99.90
3860;DHT22;1945;52.036;8.614;2023-12-20T14:43:42;6.20;99.90
3860;DHT22;1945;52.036;8.614;2023-12-20T14:46:10;6.20;99.90
3860;DHT22;1945;52.036;8.614;2023-12-20T14:48:37;6.20;99.90
3860;DHT22;1945;52.036;8.614;2023-12-20T14:51:04;6.20;99.90
3860;DHT22;1945;52.036;8.614;2023-12-20T14:53:30;6.20;99.90
3860;DHT22;1945;52.036;8.614;2023-12-20T14:55:57;6.20;99.90
3860;DHT22;1945;52.036;8.614;2023-12-20T14:58:27;6.20;99.90
3860;DHT22;1945;52.036;8.614;2023-12-20T15:00:54;6.20;99.90
3860;DHT22;1945;52.036;8.614;2023-12-20T15:03:23;6.20;99.90
3860;DHT22;1945;52.036;8.614;2023-12-20T15:05:50;6.20;99.90
3860;DHT22;1945;52.036;8.614;2023-12-20T15:08:17;6.20;99.90
3860;DHT22;1945;52.036;8.614;2023-12-20T15:10:43;6.20;99.90
3860;DHT22;1945;52.036;8.614;2023-12-20T15:13:10;6.20;99.90
3860;DHT22;1945;52.036;8.614;2023-12-20T15:15:38;6.10;99.90
3860;DHT22;1945;52.036;8.614;2023-12-20T15:18:05;6.10;99.90
3860;DHT22;1945;52.036;8.614;2023-12-20T15:20:33;6.10;99.90
3860;DHT22;1945;52.036;8.614;2023-12-20T15:23:02;6.10;99.90
3860;DHT22;1945;52.036;8.614;2023-12-20T15:25:32;6.10;99.90
3860;DHT22;1945;52.036;8.614;2023-12-20T15:27:58;6.10;99.90
3860;DHT22;1945;52.036;8.614;2023-12-20T15:30:24;6.10;99.90
3860;DHT22;1945;52.036;8.614;2023-12-20T15:32:51;6.10;99.90
3860;DHT22;1945;52.036;8.614;2023-12-20T15:35:18;6.10;99.90
3860;DHT22;1945;52.036;8.614;2023-12-20T15:37:46;6.10;99.90
3860;DHT22;1945;52.036;8.614;2023-12-20T15:40:13;6.10;99.90
3860;DHT22;1945;52.036;8.614;2023-12-20T15:42:40;6.40;99.90
3860;DHT22;1945;52.036;8.614;2023-12-20T15:45:08;6.10;99.90
3860;DHT22;1945;52.036;8.614;2023-12-20T15:47:35;6.10;99.90
3860;DHT22;1945;52.036;8.614;2023-12-20T15:50:02;6.10;99.90
3860;DHT22;1945;52.036;8.614;2023-12-20T15:52:29;6.10;99.90
3860;DHT22;1945;52.036;8.614;2023-12-20T15:54:58;6.10;99.90
3860;DHT22;1945;52.036;8.614;2023-12-20T15:57:24;6.10;99.90
3860;DHT22;1945;52.036;8.614;2023-12-20T15:59:52;6.10;99.90
3860;DHT22;1945;52.036;8.614;2023-12-20T16:02:18;6.10;99.90
3860;DHT22;1945;52.036;8.614;2023-12-20T16:04:46;6.10;99.90
3860;DHT22;1945;52.036;8.614;2023-12-20T16:07:13;6.10;99.90
3860;DHT22;1945;52.036;8.614;2023-12-20T16:09:40;6.50;99.90
3860;DHT22;1945;52.036;8.614;2023-12-20T16:12:11;6.50;99.90
3860;DHT22;1945;52.036;8.614;2023-12-20T16:14:37;6.00;99.90
3860;DHT22;1945;52.036;8.614;2023-12-20T16:17:04;6.00;99.90
3860;DHT22;1945;52.036;8.614;2023-12-20T16:19:31;6.00;99.90
3860;DHT22;1945;52.036;8.614;2023-12-20T16:21:58;6.00;99.90
3860;DHT22;1945;52.036;8.614;2023-12-20T16:24:27;6.00;99.90
3860;DHT22;1945;52.036;8.614;2023-12-20T16:26:54;6.00;99.90
3860;DHT22;1945;52.036;8.614;2023-12-20T16:29:29;6.00;99.90
3860;DHT22;1945;52.036;8.614;2023-12-20T16:31:56;6.00;99.90
3860;DHT22;1945;52.036;8.614;2023-12-20T16:34:23;6.00;99.90
3860;DHT22;1945;52.036;8.614;2023-12-20T16:36:51;6.00;99.90
3860;DHT22;1945;52.036;8.614;2023-12-20T16:39:19;6.00;99.90
3860;DHT22;1945;52.036;8.614;2023-12-20T16:41:46;6.10;99.90
3860;DHT22;1945;52.036;8.614;2023-12-20T16:44:13;6.10;99.90
3860;DHT22;1945;52.036;8.614;2023-12-20T16:46:41;6.10;99.90
3860;DHT22;1945;52.036;8.614;2023-12-20T16:49:08;6.30;99.90
3860;DHT22;1945;52.036;8.614;2023-12-20T16:51:34;6.20;99.90
3860;DHT22;1945;52.036;8.614;2023-12-20T16:54:01;6.30;99.90
3860;DHT22;1945;52.036;8.614;2023-12-20T16:56:30;6.30;99.90
3860;DHT22;1945;52.036;8.614;2023-12-20T16:58:58;6.40;99.90
3860;DHT22;1945;52.036;8.614;2023-12-20T17:01:25;6.50;99.90
3860;DHT22;1945;52.036;8.614;2023-12-20T17:03:56;6.50;99.90
3860;DHT22;1945;52.036;8.614;2023-12-20T17:06:23;6.50;99.90
3860;DHT22;1945;52.036;8.614;2023-12-20T17:08:52;6.50;99.90
3860;DHT22;1945;52.036;8.614;2023-12-20T17:11:20;6.50;99.90
3860;DHT22;1945;52.036;8.614;2023-12-20T17:13:55;6.80;99.90
3860;DHT22;1945;52.036;8.614;2023-12-20T17:16:23;6.60;99.90
3860;DHT22;1945;52.036;8.614;2023-12-20T17:18:50;6.70;99.90
3860;DHT22;1945;52.036;8.614;2023-12-20T17:21:18;6.70;99.90
3860;DHT22;1945;52.036;8.614;2023-12-20T17:23:46;6.70;99.90
3860;DHT22;1945;52.036;8.614;2023-12-20T17:26:13;6.70;99.90
3860;DHT22;1945;52.036;8.614;2023-12-20T17:28:47;6.80;99.90
3860;DHT22;1945;52.036;8.614;2023-12-20T17:31:14;6.80;99.90
3860;DHT22;1945;52.036;8.614;2023-12-20T17:33:40;6.80;99.90
3860;DHT22;1945;52.036;8.614;2023-12-20T17:36:08;6.80;99.90
3860;DHT22;1945;52.036;8.614;2023-12-20T17:38:37;6.80;99.90
3860;DHT22;1945;52.036;8.614;2023-12-20T17:41:05;6.80;99.90
3860;DHT22;1945;52.036;8.614;2023-12-20T17:43:32;6.80;99.90
3860;DHT22;1945;52.036;8.614;2023-12-20T17:45:59;6.80;99.90
3860;DHT22;1945;52.036;8.614;2023-12-20T17:48:31;6.90;99.90
3860;DHT22;1945;52.036;8.614;2023-12-20T17:50:58;6.90;99.90
3860;DHT22;1945;52.036;8.614;2023-12-20T17:53:25;6.90;99.90
3860;DHT22;1945;52.036;8.614;2023-12-20T17:55:53;6.90;99.90
3860;DHT22;1945;52.036;8.614;2023-12-20T17:58:19;6.80;99.90
3860;DHT22;1945;52.036;8.614;2023-12-20T18:00:46;6.80;99.90
3860;DHT22;1945;52.036;8.614;2023-12-20T18:03:13;6.80;99.90
3860;DHT22;1945;52.036;8.614;2023-12-20T18:05:41;6.90;99.90
3860;DHT22;1945;52.036;8.614;2023-12-20T18:08:08;6.90;99.90
3860;DHT22;1945;52.036;8.614;2023-12-20T18:10:38;6.90;99.90
3860;DHT22;1945;52.036;8.614;2023-12-20T18:13:06;6.90;99.90
3860;DHT22;1945;52.036;8.614;2023-12-20T18:15:32;6.80;99.90
3860;DHT22;1945;52.036;8.614;2023-12-20T18:18:01;6.90;99.90
3860;DHT22;1945;52.036;8.614;2023-12-20T18:20:28;6.90;99.90
3860;DHT22;1945;52.036;8.614;2023-12-20T18:22:55;6.90;99.90
3860;DHT22;1945;52.036;8.614;2023-12-20T18:25:22;6.90;99.90
3860;DHT22;1945;52.036;8.614;2023-12-20T18:27:48;6.90;99.90
3860;DHT22;1945;52.036;8.614;2023-12-20T18:30:16;6.90;99.90
3860;DHT22;1945;52.036;8.614;2023-12-20T18:32:43;6.90;99.90
3860;DHT22;1945;52.036;8.614;2023-12-20T18:35:10;6.90;99.90
3860;DHT22;1945;52.036;8.614;2023-12-20T18:37:42;6.90;99.90
3860;DHT22;1945;52.036;8.614;2023-12-20T18:40:11;6.90;99.90
3860;DHT22;1945;52.036;8.614;2023-12-20T18:42:38;6.90;99.90
3860;DHT22;1945;52.036;8.614;2023-12-20T18:45:06;6.90;99.90
3860;DHT22;1945;52.036;8.614;2023-12-20T18:47:34;6.90;99.90